createdAt,value
2017-03-30T00:00:53.650Z,86.73
2017-03-30T00:01:54.177Z,86.94
2017-03-30T00:02:54.714Z,86.52
2017-03-30T00:03:55.237Z,86.36
2017-03-30T00:04:55.765Z,86.22
2017-03-30T00:05:56.298Z,86.04
2017-03-30T00:06:56.825Z,85.83
2017-03-30T00:07:57.356Z,85.61
2017-03-30T00:08:57.887Z,85.46
2017-03-30T00:09:58.418Z,85.93
2017-03-30T00:10:58.946Z,85.64
2017-03-30T00:11:59.779Z,85.88
2017-03-30T00:13:00.009Z,85.96
2017-03-30T00:14:00.544Z,85.96
2017-03-30T00:15:01.082Z,85.96
2017-03-30T00:16:01.603Z,86.07
2017-03-30T00:17:02.133Z,85.75
2017-03-30T00:18:02.953Z,85.83
2017-03-30T00:19:03.189Z,86.01
2017-03-30T00:20:04.016Z,86.09
2017-03-30T00:21:04.257Z,85.72
2017-03-30T00:22:04.779Z,85.88
2017-03-30T00:23:05.319Z,85.83
2017-03-30T00:24:05.836Z,86.01
2017-03-30T00:25:06.369Z,86.22
2017-03-30T00:26:06.898Z,85.61
2017-03-30T00:27:07.430Z,85.13
2017-03-30T00:28:07.968Z,85.16
2017-03-30T00:29:08.489Z,84.92
2017-03-30T00:30:09.023Z,84.42
2017-03-30T00:31:09.552Z,84.60
2017-03-30T00:32:10.088Z,83.83
2017-03-30T00:33:10.625Z,83.78
2017-03-30T00:34:11.157Z,83.78
2017-03-30T00:35:11.690Z,83.40
2017-03-30T00:36:12.226Z,83.28
2017-03-30T00:37:12.751Z,83.30
2017-03-30T00:38:13.283Z,83.28
2017-03-30T00:39:13.814Z,83.25
2017-03-30T00:40:14.345Z,83.01
2017-03-30T00:41:14.876Z,82.59
2017-03-30T00:42:15.404Z,82.90
2017-03-30T00:43:15.936Z,83.54
2017-03-30T00:44:16.469Z,83.30
2017-03-30T00:45:16.996Z,83.14
2017-03-30T00:46:17.528Z,82.85
2017-03-30T00:47:18.057Z,82.90
2017-03-30T00:48:18.586Z,82.96
2017-03-30T00:49:19.119Z,83.36
2017-03-30T00:50:19.647Z,83.54
2017-03-30T00:51:20.174Z,83.30
2017-03-30T00:52:20.702Z,83.06
2017-03-30T00:53:21.236Z,83.54
2017-03-30T00:54:21.764Z,83.62
2017-03-30T00:55:22.300Z,83.44
2017-03-30T00:56:22.825Z,83.44
2017-03-30T00:57:23.360Z,83.30
2017-03-30T00:58:23.887Z,82.98
2017-03-30T00:59:24.420Z,83.33
2017-03-30T01:00:24.946Z,83.91
2017-03-30T01:01:25.480Z,84.17
2017-03-30T01:02:26.015Z,83.97
2017-03-30T01:03:26.543Z,83.86
2017-03-30T01:04:27.073Z,84.76
2017-03-30T01:05:27.600Z,85.00
2017-03-30T01:06:28.134Z,85.08
2017-03-30T01:07:28.656Z,85.08
2017-03-30T01:08:29.185Z,84.97
2017-03-30T01:09:29.722Z,85.46
2017-03-30T01:10:30.399Z,85.38
2017-03-30T01:11:30.784Z,85.27
2017-03-30T01:12:31.324Z,84.58
2017-03-30T01:13:31.854Z,84.58
2017-03-30T01:14:32.388Z,84.97
2017-03-30T01:15:32.923Z,85.56
2017-03-30T01:16:33.458Z,85.43
2017-03-30T01:17:33.980Z,85.30
2017-03-30T01:18:34.507Z,85.24
2017-03-30T01:19:35.037Z,85.48
2017-03-30T01:20:35.578Z,85.40
2017-03-30T01:21:36.101Z,85.32
2017-03-30T01:22:36.628Z,85.75
2017-03-30T01:23:37.156Z,86.07
2017-03-30T01:24:37.865Z,86.01
2017-03-30T01:25:38.220Z,86.15
2017-03-30T01:26:38.749Z,86.38
2017-03-30T01:27:39.281Z,86.57
2017-03-30T01:28:39.807Z,86.73
2017-03-30T01:29:40.341Z,86.81
2017-03-30T01:30:40.872Z,86.94
2017-03-30T01:31:41.400Z,87.18
2017-03-30T01:32:42.085Z,87.45
2017-03-30T01:33:42.459Z,87.53
2017-03-30T01:34:42.991Z,87.64
2017-03-30T01:35:43.542Z,87.53
2017-03-30T01:36:44.051Z,87.69
2017-03-30T01:37:44.585Z,87.69
2017-03-30T01:38:45.111Z,87.69
2017-03-30T01:39:45.638Z,87.51
2017-03-30T01:40:46.170Z,87.64
2017-03-30T01:41:46.701Z,88.01
2017-03-30T01:42:47.232Z,87.90
2017-03-30T01:43:47.758Z,88.15
2017-03-30T01:44:48.288Z,87.93
2017-03-30T01:45:48.819Z,87.64
2017-03-30T01:46:49.350Z,87.72
2017-03-30T01:47:49.880Z,87.88
2017-03-30T01:48:50.412Z,88.33
2017-03-30T01:49:50.942Z,88.52
2017-03-30T01:50:51.476Z,88.41
2017-03-30T01:51:52.017Z,88.36
2017-03-30T01:52:52.540Z,88.50
2017-03-30T01:53:53.074Z,88.52
2017-03-30T01:54:53.604Z,88.50
2017-03-30T01:55:54.139Z,89.06
2017-03-30T01:56:54.671Z,88.76
2017-03-30T01:57:55.197Z,88.87
2017-03-30T01:58:55.724Z,88.87
2017-03-30T01:59:56.256Z,87.90
2017-03-30T02:00:56.786Z,88.95
2017-03-30T02:01:57.314Z,89.24
2017-03-30T02:02:57.842Z,89.27
2017-03-30T02:03:58.379Z,88.97
2017-03-30T02:04:58.901Z,89.32
2017-03-30T02:05:59.432Z,89.27
2017-03-30T02:06:59.968Z,89.27
2017-03-30T02:08:00.494Z,89.08
2017-03-30T02:09:01.038Z,89.37
2017-03-30T02:10:01.559Z,89.54
2017-03-30T02:11:02.085Z,89.62
2017-03-30T02:12:02.763Z,89.62
2017-03-30T02:13:03.153Z,89.35
2017-03-30T02:14:03.674Z,89.70
2017-03-30T02:15:04.207Z,89.64
2017-03-30T02:16:04.734Z,89.62
2017-03-30T02:17:05.262Z,89.54
2017-03-30T02:18:05.795Z,89.54
2017-03-30T02:19:06.322Z,89.67
2017-03-30T02:20:06.852Z,89.45
2017-03-30T02:21:07.381Z,89.35
2017-03-30T02:22:07.909Z,89.27
2017-03-30T02:23:08.446Z,89.24
2017-03-30T02:24:08.961Z,89.16
2017-03-30T02:25:09.497Z,89.03
2017-03-30T02:26:10.023Z,89.32
2017-03-30T02:27:10.705Z,89.27
2017-03-30T02:28:11.087Z,89.27
2017-03-30T02:29:11.618Z,89.06
2017-03-30T02:30:12.150Z,89.00
2017-03-30T02:31:12.674Z,88.92
2017-03-30T02:32:13.206Z,88.84
2017-03-30T02:33:13.750Z,88.97
2017-03-30T02:34:14.284Z,89.11
2017-03-30T02:35:14.813Z,88.87
2017-03-30T02:36:15.348Z,88.71
2017-03-30T02:37:15.891Z,88.60
2017-03-30T02:38:16.407Z,88.73
2017-03-30T02:39:16.938Z,88.71
2017-03-30T02:40:17.614Z,88.50
2017-03-30T02:41:17.995Z,88.33
2017-03-30T02:42:18.526Z,88.71
2017-03-30T02:43:19.055Z,88.71
2017-03-30T02:44:19.587Z,88.79
2017-03-30T02:45:20.114Z,88.65
2017-03-30T02:46:20.638Z,88.52
2017-03-30T02:47:21.173Z,88.57
2017-03-30T02:48:21.704Z,88.50
2017-03-30T02:49:22.229Z,88.71
2017-03-30T02:50:22.757Z,88.97
2017-03-30T02:51:23.286Z,89.06
2017-03-30T02:52:23.817Z,88.92
2017-03-30T02:53:24.346Z,88.84
2017-03-30T02:54:24.876Z,88.92
2017-03-30T02:55:25.407Z,88.76
2017-03-30T02:56:25.941Z,88.76
2017-03-30T02:57:26.479Z,88.81
2017-03-30T02:58:26.999Z,88.71
2017-03-30T02:59:27.537Z,88.57
2017-03-30T03:00:28.357Z,88.54
2017-03-30T03:01:28.585Z,88.41
2017-03-30T03:02:29.116Z,89.16
2017-03-30T03:03:29.645Z,88.79
2017-03-30T03:04:30.173Z,88.50
2017-03-30T03:05:30.712Z,88.87
2017-03-30T03:06:31.234Z,88.50
2017-03-30T03:07:31.760Z,88.92
2017-03-30T03:08:32.294Z,88.57
2017-03-30T03:09:32.829Z,88.50
2017-03-30T03:10:33.356Z,87.67
2017-03-30T03:11:33.883Z,87.02
2017-03-30T03:12:34.411Z,87.48
2017-03-30T03:13:34.938Z,87.67
2017-03-30T03:14:35.473Z,87.18
2017-03-30T03:15:36.009Z,87.34
2017-03-30T03:16:36.544Z,87.61
2017-03-30T03:17:37.073Z,87.37
2017-03-30T03:18:37.606Z,87.29
2017-03-30T03:19:38.138Z,87.37
2017-03-30T03:20:38.668Z,86.44
2017-03-30T03:21:39.199Z,86.49
2017-03-30T03:22:39.729Z,86.44
2017-03-30T03:23:40.263Z,86.38
2017-03-30T03:24:40.790Z,86.12
2017-03-30T03:25:41.332Z,85.16
2017-03-30T03:26:41.855Z,84.89
2017-03-30T03:27:42.384Z,84.39
2017-03-30T03:28:42.913Z,83.91
2017-03-30T03:29:43.443Z,84.17
2017-03-30T03:30:43.971Z,84.20
2017-03-30T03:31:44.502Z,83.99
2017-03-30T03:32:45.033Z,83.51
2017-03-30T03:33:45.560Z,83.51
2017-03-30T03:34:46.090Z,83.40
2017-03-30T03:35:46.618Z,83.20
2017-03-30T03:36:47.148Z,82.21
2017-03-30T03:37:47.677Z,81.92
2017-03-30T03:38:48.209Z,81.40
2017-03-30T03:39:48.740Z,81.60
2017-03-30T03:40:49.417Z,81.68
2017-03-30T03:41:49.807Z,81.66
2017-03-30T03:42:50.329Z,81.52
2017-03-30T03:43:50.856Z,81.68
2017-03-30T03:44:51.388Z,82.16
2017-03-30T03:45:51.930Z,81.32
2017-03-30T03:46:52.449Z,81.37
2017-03-30T03:47:52.977Z,81.26
2017-03-30T03:48:53.507Z,81.32
2017-03-30T03:49:54.043Z,81.24
2017-03-30T03:50:54.564Z,81.26
2017-03-30T03:51:55.106Z,81.50
2017-03-30T03:52:55.627Z,81.16
2017-03-30T03:53:56.149Z,81.37
2017-03-30T03:54:56.682Z,81.32
2017-03-30T03:55:57.212Z,81.32
2017-03-30T03:56:57.746Z,81.95
2017-03-30T03:57:58.430Z,81.52
2017-03-30T03:58:58.813Z,81.58
2017-03-30T03:59:59.350Z,82.37
2017-03-30T04:00:59.887Z,82.24
2017-03-30T04:02:00.423Z,81.90
2017-03-30T04:03:00.938Z,81.82
2017-03-30T04:04:01.616Z,81.82
2017-03-30T04:05:01.999Z,81.98
2017-03-30T04:06:02.531Z,82.06
2017-03-30T04:07:03.062Z,81.87
2017-03-30T04:08:03.590Z,82.06
2017-03-30T04:09:04.124Z,82.11
2017-03-30T04:10:04.646Z,82.19
2017-03-30T04:11:05.180Z,82.19
2017-03-30T04:12:06.005Z,82.08
2017-03-30T04:13:06.243Z,82.43
2017-03-30T04:14:06.778Z,82.59
2017-03-30T04:15:07.304Z,82.48
2017-03-30T04:16:07.983Z,82.19
2017-03-30T04:17:08.362Z,82.43
2017-03-30T04:18:08.892Z,81.84
2017-03-30T04:19:09.422Z,81.92
2017-03-30T04:20:09.959Z,81.71
2017-03-30T04:21:10.485Z,81.84
2017-03-30T04:22:11.020Z,82.27
2017-03-30T04:23:11.546Z,82.27
2017-03-30T04:24:12.077Z,82.29
2017-03-30T04:25:12.611Z,82.00
2017-03-30T04:26:13.137Z,81.76
2017-03-30T04:27:13.817Z,81.87
2017-03-30T04:28:14.217Z,81.74
2017-03-30T04:29:14.731Z,81.32
2017-03-30T04:30:15.261Z,81.58
2017-03-30T04:31:15.791Z,81.13
2017-03-30T04:32:16.320Z,81.05
2017-03-30T04:33:16.854Z,80.94
2017-03-30T04:34:17.397Z,81.13
2017-03-30T04:35:17.910Z,80.94
2017-03-30T04:36:18.442Z,80.92
2017-03-30T04:37:18.974Z,80.89
2017-03-30T04:38:19.510Z,80.63
2017-03-30T04:39:20.045Z,80.81
2017-03-30T04:40:20.579Z,80.73
2017-03-30T04:41:21.118Z,80.57
2017-03-30T04:42:21.644Z,80.60
2017-03-30T04:43:22.170Z,80.65
2017-03-30T04:44:22.720Z,80.44
2017-03-30T04:45:23.230Z,80.55
2017-03-30T04:46:23.909Z,80.36
2017-03-30T04:47:24.288Z,80.57
2017-03-30T04:48:24.823Z,80.68
2017-03-30T04:49:25.347Z,80.73
2017-03-30T04:50:25.874Z,80.73
2017-03-30T04:51:26.553Z,80.55
2017-03-30T04:52:26.933Z,80.68
2017-03-30T04:53:27.466Z,80.94
2017-03-30T04:54:27.995Z,80.81
2017-03-30T04:55:28.538Z,81.02
2017-03-30T04:56:29.059Z,80.92
2017-03-30T04:57:29.596Z,81.13
2017-03-30T04:58:30.121Z,81.18
2017-03-30T04:59:30.649Z,80.60
2017-03-30T05:00:31.176Z,80.65
2017-03-30T05:01:31.703Z,81.00
2017-03-30T05:02:35.252Z,81.68
2017-03-30T05:03:32.757Z,81.56
2017-03-30T05:04:33.289Z,81.63
2017-03-30T05:05:33.815Z,82.03
2017-03-30T05:06:34.353Z,82.08
2017-03-30T05:07:34.876Z,82.40
2017-03-30T05:08:35.407Z,82.48
2017-03-30T05:09:35.938Z,82.75
2017-03-30T05:10:36.466Z,82.69
2017-03-30T05:11:36.992Z,82.69
2017-03-30T05:12:37.522Z,82.80
2017-03-30T05:13:38.049Z,82.80
2017-03-30T05:14:38.580Z,82.67
2017-03-30T05:15:39.110Z,82.98
2017-03-30T05:16:39.646Z,83.06
2017-03-30T05:17:40.185Z,83.04
2017-03-30T05:18:40.716Z,83.75
2017-03-30T05:19:41.251Z,83.65
2017-03-30T05:20:41.784Z,83.86
2017-03-30T05:21:42.317Z,83.94
2017-03-30T05:22:42.850Z,84.09
2017-03-30T05:23:43.385Z,84.12
2017-03-30T05:24:44.052Z,84.09
2017-03-30T05:25:44.433Z,84.12
2017-03-30T05:26:44.973Z,84.26
2017-03-30T05:27:45.493Z,84.97
2017-03-30T05:28:46.018Z,85.11
2017-03-30T05:29:46.552Z,84.84
2017-03-30T05:30:47.095Z,84.60
2017-03-30T05:31:47.611Z,84.50
2017-03-30T05:32:48.137Z,84.81
2017-03-30T05:33:48.667Z,85.40
2017-03-30T05:34:49.196Z,85.56
2017-03-30T05:35:49.730Z,85.35
2017-03-30T05:36:50.259Z,85.75
2017-03-30T05:37:50.793Z,85.66
2017-03-30T05:38:51.327Z,85.72
2017-03-30T05:39:51.850Z,85.91
2017-03-30T05:40:52.378Z,85.93
2017-03-30T05:41:52.907Z,86.17
2017-03-30T05:42:53.592Z,86.15
2017-03-30T05:43:53.973Z,86.01
2017-03-30T05:44:54.651Z,85.99
2017-03-30T05:45:55.028Z,85.93
2017-03-30T05:46:55.709Z,86.38
2017-03-30T05:47:56.097Z,86.46
2017-03-30T05:48:56.636Z,86.33
2017-03-30T05:49:57.151Z,86.01
2017-03-30T05:50:57.671Z,85.40
2017-03-30T05:51:58.203Z,86.20
2017-03-30T05:52:58.735Z,86.52
2017-03-30T05:53:59.267Z,85.88
2017-03-30T05:54:59.806Z,85.83
2017-03-30T05:56:00.326Z,84.95
2017-03-30T05:57:00.852Z,84.60
2017-03-30T05:58:01.398Z,84.71
2017-03-30T05:59:01.917Z,84.95
2017-03-30T06:00:02.455Z,84.26
2017-03-30T06:01:02.994Z,84.36
2017-03-30T06:02:03.531Z,84.42
2017-03-30T06:03:04.061Z,84.92
2017-03-30T06:04:04.589Z,84.63
2017-03-30T06:05:05.122Z,84.63
2017-03-30T06:06:05.644Z,83.70
2017-03-30T06:07:06.175Z,84.63
2017-03-30T06:08:06.706Z,84.39
2017-03-30T06:09:07.569Z,83.83
2017-03-30T06:10:07.766Z,83.51
2017-03-30T06:11:08.300Z,83.67
2017-03-30T06:12:08.827Z,82.88
2017-03-30T06:13:09.505Z,83.14
2017-03-30T06:14:09.897Z,82.21
2017-03-30T06:15:10.423Z,81.34
2017-03-30T06:16:10.963Z,80.33
2017-03-30T06:17:11.489Z,80.49
2017-03-30T06:18:12.019Z,80.47
2017-03-30T06:19:12.549Z,80.15
2017-03-30T06:20:13.078Z,80.63
2017-03-30T06:21:13.611Z,80.94
2017-03-30T06:22:14.138Z,80.55
2017-03-30T06:23:14.670Z,80.39
2017-03-30T06:24:15.202Z,81.16
2017-03-30T06:25:15.763Z,81.21
2017-03-30T06:26:16.262Z,80.52
2017-03-30T06:27:16.788Z,80.57
2017-03-30T06:28:17.320Z,80.52
2017-03-30T06:29:17.850Z,79.86
2017-03-30T06:30:18.384Z,80.41
2017-03-30T06:31:18.912Z,80.55
2017-03-30T06:32:19.444Z,80.92
2017-03-30T06:33:19.973Z,79.68
2017-03-30T06:34:21.850Z,79.57
2017-03-30T06:35:21.029Z,80.02
2017-03-30T06:36:21.563Z,80.49
2017-03-30T06:37:22.242Z,81.08
2017-03-30T06:38:22.633Z,81.16
2017-03-30T06:39:23.154Z,81.18
2017-03-30T06:40:23.875Z,81.40
2017-03-30T06:41:24.226Z,81.16
2017-03-30T06:42:24.755Z,80.55
2017-03-30T06:43:25.290Z,80.41
2017-03-30T06:44:25.815Z,81.08
2017-03-30T06:45:26.344Z,80.29
2017-03-30T06:46:26.876Z,80.15
2017-03-30T06:47:27.419Z,80.33
2017-03-30T06:48:27.942Z,80.52
2017-03-30T06:49:28.617Z,79.83
2017-03-30T06:50:28.998Z,80.10
2017-03-30T06:51:29.529Z,79.63
2017-03-30T06:52:30.057Z,79.23
2017-03-30T06:53:30.588Z,79.28
2017-03-30T06:54:31.117Z,79.33
2017-03-30T06:55:31.654Z,79.65
2017-03-30T06:56:32.180Z,80.18
2017-03-30T06:57:32.708Z,79.07
2017-03-30T06:58:33.237Z,79.41
2017-03-30T06:59:33.764Z,79.25
2017-03-30T07:00:34.297Z,79.52
2017-03-30T07:01:34.825Z,78.94
2017-03-30T07:02:35.362Z,79.25
2017-03-30T07:03:35.899Z,78.67
2017-03-30T07:04:36.414Z,78.62
2017-03-30T07:05:36.949Z,77.62
2017-03-30T07:06:37.474Z,77.73
2017-03-30T07:07:38.152Z,77.36
2017-03-30T07:08:38.538Z,77.89
2017-03-30T07:09:39.076Z,77.54
2017-03-30T07:10:39.596Z,78.17
2017-03-30T07:11:40.273Z,77.67
2017-03-30T07:12:40.656Z,77.25
2017-03-30T07:13:41.195Z,77.41
2017-03-30T07:14:41.720Z,76.70
2017-03-30T07:15:42.249Z,76.91
2017-03-30T07:16:42.779Z,77.02
2017-03-30T07:17:43.310Z,76.81
2017-03-30T07:18:43.841Z,76.26
2017-03-30T07:19:44.385Z,76.49
2017-03-30T07:20:44.904Z,75.57
2017-03-30T07:21:45.438Z,75.94
2017-03-30T07:22:45.975Z,75.37
2017-03-30T07:23:46.514Z,75.89
2017-03-30T07:24:47.037Z,75.34
2017-03-30T07:25:47.569Z,74.68
2017-03-30T07:26:48.098Z,74.55
2017-03-30T07:27:48.640Z,73.69
2017-03-30T07:28:49.159Z,74.03
2017-03-30T07:29:49.691Z,73.79
2017-03-30T07:30:50.223Z,74.00
2017-03-30T07:31:50.752Z,74.03
2017-03-30T07:32:51.286Z,74.05
2017-03-30T07:33:51.809Z,74.52
2017-03-30T07:34:52.342Z,74.87
2017-03-30T07:35:52.868Z,74.94
2017-03-30T07:36:53.398Z,75.31
2017-03-30T07:37:53.928Z,75.23
2017-03-30T07:38:54.606Z,75.57
2017-03-30T07:39:54.994Z,75.49
2017-03-30T07:40:55.547Z,74.58
2017-03-30T07:41:56.060Z,75.57
2017-03-30T07:42:56.583Z,75.94
2017-03-30T07:43:57.114Z,74.87
2017-03-30T07:44:57.646Z,75.13
2017-03-30T07:45:58.178Z,74.58
2017-03-30T07:46:58.705Z,75.18
2017-03-30T07:47:59.235Z,75.49
2017-03-30T07:48:59.768Z,75.70
2017-03-30T07:50:00.298Z,74.58
2017-03-30T07:51:00.975Z,75.05
2017-03-30T07:52:01.357Z,74.55
2017-03-30T07:53:01.890Z,74.58
2017-03-30T07:54:02.425Z,74.16
2017-03-30T07:55:02.952Z,74.03
2017-03-30T07:56:03.483Z,74.00
2017-03-30T07:57:04.019Z,73.95
2017-03-30T07:58:04.560Z,74.03
2017-03-30T07:59:05.081Z,74.60
2017-03-30T08:00:05.608Z,74.08
2017-03-30T08:01:06.148Z,74.18
2017-03-30T08:02:06.672Z,74.05
2017-03-30T08:03:07.209Z,74.42
2017-03-30T08:04:07.746Z,73.50
2017-03-30T08:05:08.281Z,73.03
2017-03-30T08:06:08.807Z,72.43
2017-03-30T08:07:09.341Z,72.56
2017-03-30T08:08:09.873Z,72.61
2017-03-30T08:09:10.408Z,70.97
2017-03-30T08:10:10.942Z,71.52
2017-03-30T08:11:11.472Z,69.96
2017-03-30T08:12:12.145Z,70.04
2017-03-30T08:13:12.530Z,69.34
2017-03-30T08:14:13.057Z,70.87
2017-03-30T08:15:13.595Z,69.77
2017-03-30T08:16:14.113Z,68.32
2017-03-30T08:17:14.648Z,67.85
2017-03-30T08:18:15.176Z,68.32
2017-03-30T08:19:15.704Z,66.69
2017-03-30T08:20:16.242Z,66.45
2017-03-30T08:21:16.765Z,67.13
2017-03-30T08:22:17.295Z,66.74
2017-03-30T08:23:17.824Z,66.61
2017-03-30T08:24:18.356Z,66.37
2017-03-30T08:25:18.892Z,65.45
2017-03-30T08:26:19.418Z,62.99
2017-03-30T08:27:19.946Z,63.43
2017-03-30T08:28:20.488Z,62.04
2017-03-30T08:29:21.010Z,64.02
2017-03-30T08:30:21.542Z,62.97
2017-03-30T08:31:22.079Z,60.76
2017-03-30T08:32:22.612Z,61.84
2017-03-30T08:33:23.433Z,61.48
2017-03-30T08:34:23.661Z,59.20
2017-03-30T08:35:24.196Z,59.35
2017-03-30T08:36:24.728Z,58.89
2017-03-30T08:37:25.260Z,58.68
2017-03-30T08:38:25.818Z,58.46
2017-03-30T08:39:26.319Z,57.46
2017-03-30T08:40:26.849Z,58.66
2017-03-30T08:41:27.380Z,59.86
2017-03-30T08:42:27.904Z,58.56
2017-03-30T08:43:28.439Z,58.66
2017-03-30T08:44:28.970Z,59.15
2017-03-30T08:45:29.509Z,58.81
2017-03-30T08:46:30.043Z,58.76
2017-03-30T08:47:30.583Z,59.02
2017-03-30T08:48:31.104Z,61.43
2017-03-30T08:49:31.637Z,60.71
2017-03-30T08:50:32.166Z,57.13
2017-03-30T08:51:32.705Z,57.79
2017-03-30T08:52:33.228Z,56.33
2017-03-30T08:53:33.761Z,56.00
2017-03-30T08:54:34.292Z,55.91
2017-03-30T08:55:34.823Z,53.87
2017-03-30T08:56:35.500Z,53.47
2017-03-30T08:57:36.044Z,54.58
2017-03-30T08:58:36.413Z,52.57
2017-03-30T08:59:36.951Z,53.14
2017-03-30T09:00:37.472Z,52.50
2017-03-30T09:01:37.998Z,54.53
2017-03-30T09:02:38.535Z,53.95
2017-03-30T09:03:39.065Z,54.02
2017-03-30T09:04:39.746Z,54.33
2017-03-30T09:05:40.125Z,54.58
2017-03-30T09:06:40.654Z,55.30
2017-03-30T09:07:41.331Z,54.61
2017-03-30T09:08:41.722Z,55.78
2017-03-30T09:09:42.248Z,54.58
2017-03-30T09:10:42.780Z,56.54
2017-03-30T09:11:43.304Z,56.85
2017-03-30T09:12:43.843Z,56.82
2017-03-30T09:13:44.376Z,57.79
2017-03-30T09:14:45.045Z,59.45
2017-03-30T09:15:45.426Z,59.45
2017-03-30T09:16:45.960Z,59.15
2017-03-30T09:17:46.485Z,60.27
2017-03-30T09:18:47.017Z,55.83
2017-03-30T09:19:47.547Z,57.69
2017-03-30T09:20:48.090Z,57.66
2017-03-30T09:21:48.612Z,54.86
2017-03-30T09:22:49.140Z,54.94
2017-03-30T09:23:49.818Z,55.72
2017-03-30T09:24:50.204Z,56.21
2017-03-30T09:25:50.741Z,55.75
2017-03-30T09:26:51.267Z,56.72
2017-03-30T09:27:51.802Z,53.42
2017-03-30T09:28:52.334Z,53.29
2017-03-30T09:29:52.869Z,52.43
2017-03-30T09:30:53.390Z,52.90
2017-03-30T09:31:53.921Z,52.98
2017-03-30T09:32:54.447Z,53.36
2017-03-30T09:33:54.980Z,52.45
2017-03-30T09:34:55.507Z,51.82
2017-03-30T09:35:56.050Z,52.50
2017-03-30T09:36:56.571Z,55.11
2017-03-30T09:37:57.104Z,52.63
2017-03-30T09:38:57.631Z,52.83
2017-03-30T09:39:58.164Z,49.77
2017-03-30T09:40:58.692Z,52.15
2017-03-30T09:41:59.225Z,49.62
2017-03-30T09:42:59.754Z,49.49
2017-03-30T09:44:00.284Z,52.53
2017-03-30T09:45:00.812Z,49.34
2017-03-30T09:46:01.344Z,49.34
2017-03-30T09:47:02.021Z,50.25
2017-03-30T09:48:02.400Z,49.85
2017-03-30T09:49:02.942Z,49.49
2017-03-30T09:50:03.464Z,50.55
2017-03-30T09:51:03.998Z,48.34
2017-03-30T09:52:04.519Z,50.13
2017-03-30T09:53:05.053Z,47.58
2017-03-30T09:54:05.575Z,47.93
2017-03-30T09:55:06.103Z,48.79
2017-03-30T09:56:06.639Z,46.58
2017-03-30T09:57:07.173Z,47.10
2017-03-30T09:58:07.694Z,47.88
2017-03-30T09:59:08.227Z,44.39
2017-03-30T10:00:08.756Z,45.15
2017-03-30T10:01:09.291Z,44.17
2017-03-30T10:02:09.819Z,44.52
2017-03-30T10:03:10.353Z,46.88
2017-03-30T10:04:10.884Z,46.58
2017-03-30T10:05:11.437Z,45.35
2017-03-30T10:06:11.961Z,46.18
2017-03-30T10:07:12.493Z,46.50
2017-03-30T10:08:13.030Z,48.48
2017-03-30T10:09:13.708Z,47.13
2017-03-30T10:10:14.092Z,48.44
2017-03-30T10:11:14.768Z,46.88
2017-03-30T10:12:15.152Z,47.61
2017-03-30T10:13:15.826Z,47.73
2017-03-30T10:14:16.207Z,46.95
2017-03-30T10:15:16.737Z,45.75
2017-03-30T10:16:17.261Z,47.63
2017-03-30T10:17:17.799Z,47.40
2017-03-30T10:18:18.321Z,47.43
2017-03-30T10:19:18.854Z,44.87
2017-03-30T10:20:19.384Z,46.02
2017-03-30T10:21:19.910Z,45.02
2017-03-30T10:22:20.436Z,44.25
2017-03-30T10:23:20.964Z,43.57
2017-03-30T10:24:21.499Z,45.02
2017-03-30T10:25:22.029Z,45.37
2017-03-30T10:26:22.556Z,44.93
2017-03-30T10:27:23.234Z,44.60
2017-03-30T10:28:23.614Z,44.35
2017-03-30T10:29:24.145Z,45.15
2017-03-30T10:30:24.681Z,46.45
2017-03-30T10:31:25.208Z,45.15
2017-03-30T10:32:25.885Z,45.80
2017-03-30T10:33:26.274Z,46.00
2017-03-30T10:34:26.797Z,46.27
2017-03-30T10:35:27.331Z,47.00
2017-03-30T10:36:27.853Z,44.39
2017-03-30T10:37:28.385Z,44.62
2017-03-30T10:38:28.914Z,45.05
2017-03-30T10:39:29.439Z,45.50
2017-03-30T10:40:29.968Z,46.81
2017-03-30T10:41:30.497Z,46.52
2017-03-30T10:42:31.029Z,44.02
2017-03-30T10:43:31.552Z,44.90
2017-03-30T10:44:32.085Z,45.00
2017-03-30T10:45:32.624Z,43.47
2017-03-30T10:46:33.157Z,44.27
2017-03-30T10:47:33.690Z,44.37
2017-03-30T10:48:34.225Z,43.30
2017-03-30T10:49:34.765Z,43.02
2017-03-30T10:50:35.454Z,43.30
2017-03-30T10:51:35.819Z,44.10
2017-03-30T10:52:36.357Z,43.50
2017-03-30T10:53:37.029Z,44.90
2017-03-30T10:54:37.414Z,45.25
2017-03-30T10:55:37.944Z,43.67
2017-03-30T10:56:38.469Z,44.87
2017-03-30T10:57:38.998Z,48.99
2017-03-30T10:58:39.529Z,42.87
2017-03-30T10:59:40.069Z,43.10
2017-03-30T11:00:40.591Z,43.22
2017-03-30T11:01:41.138Z,45.20
2017-03-30T11:02:41.651Z,44.80
2017-03-30T11:03:42.181Z,45.52
2017-03-30T11:04:42.710Z,43.95
2017-03-30T11:05:43.237Z,45.43
2017-03-30T11:06:43.771Z,44.35
2017-03-30T11:07:44.297Z,44.72
2017-03-30T11:08:44.829Z,45.57
2017-03-30T11:09:45.355Z,45.07
2017-03-30T11:10:45.893Z,44.87
2017-03-30T11:11:46.420Z,44.25
2017-03-30T11:12:46.948Z,44.97
2017-03-30T11:13:47.480Z,47.38
2017-03-30T11:14:48.309Z,45.43
2017-03-30T11:15:48.540Z,46.48
2017-03-30T11:16:49.073Z,42.65
2017-03-30T11:17:49.606Z,41.65
2017-03-30T11:18:50.137Z,41.61
2017-03-30T11:19:50.666Z,41.33
2017-03-30T11:20:51.199Z,41.78
2017-03-30T11:21:51.725Z,43.38
2017-03-30T11:22:52.268Z,42.23
2017-03-30T11:23:52.785Z,42.48
2017-03-30T11:24:53.318Z,42.65
2017-03-30T11:25:53.857Z,43.50
2017-03-30T11:26:54.382Z,45.12
2017-03-30T11:27:54.920Z,45.20
2017-03-30T11:28:55.447Z,44.37
2017-03-30T11:29:55.975Z,43.45
2017-03-30T11:30:56.507Z,44.62
2017-03-30T11:31:57.036Z,44.35
2017-03-30T11:32:57.570Z,42.45
2017-03-30T11:33:58.100Z,42.48
2017-03-30T11:34:58.631Z,43.27
2017-03-30T11:35:59.332Z,44.57
2017-03-30T11:36:59.689Z,45.50
2017-03-30T11:38:00.221Z,45.93
2017-03-30T11:39:00.745Z,44.64
2017-03-30T11:40:01.278Z,45.52
2017-03-30T11:41:01.804Z,44.10
2017-03-30T11:42:02.485Z,45.40
2017-03-30T11:43:02.863Z,46.35
2017-03-30T11:44:03.395Z,47.08
2017-03-30T11:45:03.923Z,45.45
2017-03-30T11:46:04.458Z,45.15
2017-03-30T11:47:04.986Z,44.02
2017-03-30T11:48:05.515Z,43.63
2017-03-30T11:49:06.051Z,45.22
2017-03-30T11:50:06.579Z,42.42
2017-03-30T11:51:07.113Z,43.17
2017-03-30T11:52:07.648Z,42.23
2017-03-30T11:53:08.166Z,41.56
2017-03-30T11:54:08.696Z,40.85
2017-03-30T11:55:09.224Z,38.82
2017-03-30T11:56:09.754Z,39.94
2017-03-30T11:57:10.282Z,39.96
2017-03-30T11:58:10.816Z,39.32
2017-03-30T11:59:11.347Z,40.83
2017-03-30T12:00:11.871Z,39.79
2017-03-30T12:01:12.402Z,39.82
2017-03-30T12:02:12.937Z,40.38
2017-03-30T12:03:13.467Z,39.74
2017-03-30T12:04:13.991Z,40.13
2017-03-30T12:05:14.521Z,40.29
2017-03-30T12:06:15.054Z,39.66
2017-03-30T12:07:15.593Z,38.21
2017-03-30T12:08:16.120Z,38.28
2017-03-30T12:09:16.799Z,38.35
2017-03-30T12:10:17.185Z,39.02
2017-03-30T12:11:17.718Z,38.77
2017-03-30T12:12:18.249Z,39.79
2017-03-30T12:13:18.778Z,40.96
2017-03-30T12:14:19.313Z,40.31
2017-03-30T12:15:19.838Z,40.43
2017-03-30T12:16:20.380Z,39.27
2017-03-30T12:17:20.902Z,40.01
2017-03-30T12:18:21.436Z,40.59
2017-03-30T12:19:21.964Z,40.43
2017-03-30T12:20:22.492Z,41.43
2017-03-30T12:21:23.025Z,41.95
2017-03-30T12:22:23.566Z,42.62
2017-03-30T12:23:24.083Z,42.83
2017-03-30T12:24:24.612Z,44.00
2017-03-30T12:25:25.142Z,43.92
2017-03-30T12:26:25.677Z,43.77
2017-03-30T12:27:26.203Z,43.92
2017-03-30T12:28:26.737Z,43.60
2017-03-30T12:29:27.262Z,43.90
2017-03-30T12:30:27.800Z,42.28
2017-03-30T12:31:28.351Z,42.97
2017-03-30T12:32:28.860Z,42.97
2017-03-30T12:33:29.384Z,42.95
2017-03-30T12:34:29.919Z,41.61
2017-03-30T12:35:30.446Z,41.75
2017-03-30T12:36:30.975Z,40.46
2017-03-30T12:37:31.508Z,39.47
2017-03-30T12:38:32.046Z,39.74
2017-03-30T12:39:32.571Z,40.06
2017-03-30T12:40:33.097Z,40.85
2017-03-30T12:41:33.629Z,40.83
2017-03-30T12:42:34.155Z,39.64
2017-03-30T12:43:34.691Z,40.01
2017-03-30T12:44:35.225Z,39.24
2017-03-30T12:45:35.759Z,39.89
2017-03-30T12:46:36.280Z,39.29
2017-03-30T12:47:36.812Z,38.57
2017-03-30T12:48:37.362Z,38.94
2017-03-30T12:49:37.883Z,39.64
2017-03-30T12:50:38.413Z,39.64
2017-03-30T12:51:38.950Z,40.51
2017-03-30T12:52:39.477Z,37.63
2017-03-30T12:53:40.007Z,36.84
2017-03-30T12:54:40.534Z,38.13
2017-03-30T12:55:41.071Z,39.96
2017-03-30T12:56:41.593Z,39.96
2017-03-30T12:57:42.119Z,41.43
2017-03-30T12:58:42.654Z,40.43
2017-03-30T12:59:43.183Z,40.26